sensor_id;sensor_type;location;lat;lon;timestamp;temperature;humidity
13375;DHT22;6756;51.354;15.754;2022-09-09T00:05:44;14.10;99.90
13375;DHT22;6756;51.354;15.754;2022-09-09T00:09:51;14.10;99.90
13375;DHT22;6756;51.354;15.754;2022-09-09T00:13:55;14.10;99.90
13375;DHT22;6756;51.354;15.754;2022-09-09T00:18:07;14.10;99.90
13375;DHT22;6756;51.354;15.754;2022-09-09T00:22:17;14.00;99.90
13375;DHT22;6756;51.354;15.754;2022-09-09T00:26:44;14.00;99.90
13375;DHT22;6756;51.354;15.754;2022-09-09T00:30:46;14.00;99.90
13375;DHT22;6756;51.354;15.754;2022-09-09T00:34:57;14.00;99.90
13375;DHT22;6756;51.354;15.754;2022-09-09T00:39:02;13.90;99.90
13375;DHT22;6756;51.354;15.754;2022-09-09T00:43:08;13.90;99.90
13375;DHT22;6756;51.354;15.754;2022-09-09T00:51:34;13.70;99.90
13375;DHT22;6756;51.354;15.754;2022-09-09T00:55:46;13.70;99.90
13375;DHT22;6756;51.354;15.754;2022-09-09T00:59:52;13.60;99.90
13375;DHT22;6756;51.354;15.754;2022-09-09T01:03:57;13.60;99.90
13375;DHT22;6756;51.354;15.754;2022-09-09T01:08:09;13.60;99.90
13375;DHT22;6756;51.354;15.754;2022-09-09T01:12:44;13.60;99.90
13375;DHT22;6756;51.354;15.754;2022-09-09T01:16:48;13.60;99.90
13375;DHT22;6756;51.354;15.754;2022-09-09T01:21:04;13.60;99.90
13375;DHT22;6756;51.354;15.754;2022-09-09T01:25:56;13.50;99.90
13375;DHT22;6756;51.354;15.754;2022-09-09T01:29:50;13.50;99.90
13375;DHT22;6756;51.354;15.754;2022-09-09T01:33:51;13.50;99.90
13375;DHT22;6756;51.354;15.754;2022-09-09T01:37:51;13.50;99.90
13375;DHT22;6756;51.354;15.754;2022-09-09T01:41:53;13.50;99.90
13375;DHT22;6756;51.354;15.754;2022-09-09T01:45:58;13.50;99.90
13375;DHT22;6756;51.354;15.754;2022-09-09T01:50:00;13.50;99.90
13375;DHT22;6756;51.354;15.754;2022-09-09T01:54:02;13.50;99.90
13375;DHT22;6756;51.354;15.754;2022-09-09T02:07:29;13.60;99.90
13375;DHT22;6756;51.354;15.754;2022-09-09T02:11:28;13.60;99.90
13375;DHT22;6756;51.354;15.754;2022-09-09T02:15:30;13.50;99.90
13375;DHT22;6756;51.354;15.754;2022-09-09T02:19:38;13.50;99.90
13375;DHT22;6756;51.354;15.754;2022-09-09T02:23:42;13.50;99.90
13375;DHT22;6756;51.354;15.754;2022-09-09T02:27:44;13.40;99.90
13375;DHT22;6756;51.354;15.754;2022-09-09T02:31:47;13.40;99.90
13375;DHT22;6756;51.354;15.754;2022-09-09T02:35:51;13.30;99.90
13375;DHT22;6756;51.354;15.754;2022-09-09T02:39:53;13.30;99.90
13375;DHT22;6756;51.354;15.754;2022-09-09T02:43:53;13.20;99.90
13375;DHT22;6756;51.354;15.754;2022-09-09T02:48:18;13.20;99.90
13375;DHT22;6756;51.354;15.754;2022-09-09T02:52:26;13.10;99.90
13375;DHT22;6756;51.354;15.754;2022-09-09T02:56:31;13.10;99.90
13375;DHT22;6756;51.354;15.754;2022-09-09T03:00:34;13.00;99.90
13375;DHT22;6756;51.354;15.754;2022-09-09T03:04:40;12.90;99.90
13375;DHT22;6756;51.354;15.754;2022-09-09T03:08:44;12.80;99.90
13375;DHT22;6756;51.354;15.754;2022-09-09T03:12:45;12.80;99.90
13375;DHT22;6756;51.354;15.754;2022-09-09T03:16:45;12.70;99.90
13375;DHT22;6756;51.354;15.754;2022-09-09T03:20:47;12.70;99.90
13375;DHT22;6756;51.354;15.754;2022-09-09T03:24:52;12.60;99.90
13375;DHT22;6756;51.354;15.754;2022-09-09T03:28:53;12.60;99.90
13375;DHT22;6756;51.354;15.754;2022-09-09T03:32:54;12.60;99.90
13375;DHT22;6756;51.354;15.754;2022-09-09T03:36:58;12.60;99.90
13375;DHT22;6756;51.354;15.754;2022-09-09T03:40:59;12.50;99.90
13375;DHT22;6756;51.354;15.754;2022-09-09T03:45:03;12.50;99.90
13375;DHT22;6756;51.354;15.754;2022-09-09T03:49:03;12.50;99.90
13375;DHT22;6756;51.354;15.754;2022-09-09T03:53:04;12.40;99.90
13375;DHT22;6756;51.354;15.754;2022-09-09T03:57:06;12.40;99.90
13375;DHT22;6756;51.354;15.754;2022-09-09T04:01:09;12.40;99.90
13375;DHT22;6756;51.354;15.754;2022-09-09T04:05:11;12.40;99.90
13375;DHT22;6756;51.354;15.754;2022-09-09T04:09:12;12.30;99.90
13375;DHT22;6756;51.354;15.754;2022-09-09T04:13:13;12.30;99.90
13375;DHT22;6756;51.354;15.754;2022-09-09T04:17:15;12.20;99.90
13375;DHT22;6756;51.354;15.754;2022-09-09T04:21:16;12.20;99.90
13375;DHT22;6756;51.354;15.754;2022-09-09T04:25:17;12.20;99.90
13375;DHT22;6756;51.354;15.754;2022-09-09T04:29:18;12.20;99.90
13375;DHT22;6756;51.354;15.754;2022-09-09T04:33:19;12.30;99.90
13375;DHT22;6756;51.354;15.754;2022-09-09T04:37:20;12.30;99.90
13375;DHT22;6756;51.354;15.754;2022-09-09T04:41:21;12.40;99.90
13375;DHT22;6756;51.354;15.754;2022-09-09T04:45:22;12.50;99.90
13375;DHT22;6756;51.354;15.754;2022-09-09T04:49:22;12.50;99.90
13375;DHT22;6756;51.354;15.754;2022-09-09T04:53:23;12.60;99.90
13375;DHT22;6756;51.354;15.754;2022-09-09T04:57:25;12.70;99.90
13375;DHT22;6756;51.354;15.754;2022-09-09T05:01:26;12.80;99.90
13375;DHT22;6756;51.354;15.754;2022-09-09T05:05:27;12.90;99.90
13375;DHT22;6756;51.354;15.754;2022-09-09T05:09:28;13.10;99.90
13375;DHT22;6756;51.354;15.754;2022-09-09T05:13:30;13.30;99.90
13375;DHT22;6756;51.354;15.754;2022-09-09T05:17:32;13.50;99.90
13375;DHT22;6756;51.354;15.754;2022-09-09T05:21:34;13.70;99.90
13375;DHT22;6756;51.354;15.754;2022-09-09T05:25:35;13.90;99.90
13375;DHT22;6756;51.354;15.754;2022-09-09T05:29:36;14.10;99.90
13375;DHT22;6756;51.354;15.754;2022-09-09T05:33:37;14.40;99.90
13375;DHT22;6756;51.354;15.754;2022-09-09T05:37:38;14.60;99.90
13375;DHT22;6756;51.354;15.754;2022-09-09T05:41:38;14.80;99.90
13375;DHT22;6756;51.354;15.754;2022-09-09T05:45:40;15.00;99.90
13375;DHT22;6756;51.354;15.754;2022-09-09T05:49:41;15.20;99.90
13375;DHT22;6756;51.354;15.754;2022-09-09T05:53:42;15.40;99.90
13375;DHT22;6756;51.354;15.754;2022-09-09T05:57:48;15.60;99.90
13375;DHT22;6756;51.354;15.754;2022-09-09T06:01:49;15.80;99.90
13375;DHT22;6756;51.354;15.754;2022-09-09T06:05:58;15.90;99.90
13375;DHT22;6756;51.354;15.754;2022-09-09T06:09:59;16.00;99.90
13375;DHT22;6756;51.354;15.754;2022-09-09T06:14:00;16.20;99.90
13375;DHT22;6756;51.354;15.754;2022-09-09T06:18:00;16.40;99.90
13375;DHT22;6756;51.354;15.754;2022-09-09T06:22:01;16.60;99.90
13375;DHT22;6756;51.354;15.754;2022-09-09T06:26:08;16.80;99.90
13375;DHT22;6756;51.354;15.754;2022-09-09T06:30:10;17.00;99.90
13375;DHT22;6756;51.354;15.754;2022-09-09T06:34:11;17.20;99.90
13375;DHT22;6756;51.354;15.754;2022-09-09T06:38:12;17.30;1.00
13375;DHT22;6756;51.354;15.754;2022-09-09T06:42:13;17.40;1.00
13375;DHT22;6756;51.354;15.754;2022-09-09T06:46:22;17.50;1.00
13375;DHT22;6756;51.354;15.754;2022-09-09T06:50:23;17.60;48.30
13375;DHT22;6756;51.354;15.754;2022-09-09T06:54:24;17.70;99.90
13375;DHT22;6756;51.354;15.754;2022-09-09T06:58:25;17.90;99.90
13375;DHT22;6756;51.354;15.754;2022-09-09T07:02:26;18.20;3.00
13375;DHT22;6756;51.354;15.754;2022-09-09T07:06:32;18.50;1.00
13375;DHT22;6756;51.354;15.754;2022-09-09T07:10:33;18.80;1.00
13375;DHT22;6756;51.354;15.754;2022-09-09T07:14:34;19.00;1.00
13375;DHT22;6756;51.354;15.754;2022-09-09T07:18:38;19.30;99.90
13375;DHT22;6756;51.354;15.754;2022-09-09T07:22:40;19.50;99.90
13375;DHT22;6756;51.354;15.754;2022-09-09T07:26:41;19.70;99.90
13375;DHT22;6756;51.354;15.754;2022-09-09T07:30:41;19.90;99.90
13375;DHT22;6756;51.354;15.754;2022-09-09T07:34:43;20.10;99.90
13375;DHT22;6756;51.354;15.754;2022-09-09T07:39:07;20.40;99.90
13375;DHT22;6756;51.354;15.754;2022-09-09T07:43:08;20.60;99.90
13375;DHT22;6756;51.354;15.754;2022-09-09T07:47:09;20.80;99.90
13375;DHT22;6756;51.354;15.754;2022-09-09T07:51:15;20.80;56.60
13375;DHT22;6756;51.354;15.754;2022-09-09T07:55:21;20.80;48.70
13375;DHT22;6756;51.354;15.754;2022-09-09T07:59:22;20.90;56.50
13375;DHT22;6756;51.354;15.754;2022-09-09T08:03:22;21.00;37.60
13375;DHT22;6756;51.354;15.754;2022-09-09T08:07:24;21.10;63.50
13375;DHT22;6756;51.354;15.754;2022-09-09T08:11:27;21.20;58.10
13375;DHT22;6756;51.354;15.754;2022-09-09T08:15:28;21.10;23.70
13375;DHT22;6756;51.354;15.754;2022-09-09T08:19:31;21.20;23.60
13375;DHT22;6756;51.354;15.754;2022-09-09T08:23:36;21.00;15.60
13375;DHT22;6756;51.354;15.754;2022-09-09T08:27:37;21.10;27.60
13375;DHT22;6756;51.354;15.754;2022-09-09T08:31:40;21.30;9.20
13375;DHT22;6756;51.354;15.754;2022-09-09T08:35:49;21.40;16.00
13375;DHT22;6756;51.354;15.754;2022-09-09T08:39:50;21.70;13.30
13375;DHT22;6756;51.354;15.754;2022-09-09T08:44:04;22.00;1.00
13375;DHT22;6756;51.354;15.754;2022-09-09T08:57:04;22.40;1.00
13375;DHT22;6756;51.354;15.754;2022-09-09T09:01:15;22.40;1.00
13375;DHT22;6756;51.354;15.754;2022-09-09T09:05:28;22.40;1.00
13375;DHT22;6756;51.354;15.754;2022-09-09T09:13:48;22.20;1.00
13375;DHT22;6756;51.354;15.754;2022-09-09T09:17:52;22.40;1.00
13375;DHT22;6756;51.354;15.754;2022-09-09T09:22:18;22.20;1.00
13375;DHT22;6756;51.354;15.754;2022-09-09T09:26:29;22.00;1.00
13375;DHT22;6756;51.354;15.754;2022-09-09T09:35:11;22.10;1.00
13375;DHT22;6756;51.354;15.754;2022-09-09T09:39:28;22.30;1.00
13375;DHT22;6756;51.354;15.754;2022-09-09T09:43:30;22.40;1.00
13375;DHT22;6756;51.354;15.754;2022-09-09T09:47:31;22.60;1.00
13375;DHT22;6756;51.354;15.754;2022-09-09T09:51:34;22.70;1.00
13375;DHT22;6756;51.354;15.754;2022-09-09T09:55:36;22.90;1.00
13375;DHT22;6756;51.354;15.754;2022-09-09T09:59:45;23.00;1.00
13375;DHT22;6756;51.354;15.754;2022-09-09T10:03:51;23.00;1.00
13375;DHT22;6756;51.354;15.754;2022-09-09T10:25:26;23.50;1.00
13375;DHT22;6756;51.354;15.754;2022-09-09T10:38:19;23.70;1.00
13375;DHT22;6756;51.354;15.754;2022-09-09T10:42:26;23.60;1.00
13375;DHT22;6756;51.354;15.754;2022-09-09T10:55:20;24.00;1.00
13375;DHT22;6756;51.354;15.754;2022-09-09T10:59:31;24.50;1.00
13375;DHT22;6756;51.354;15.754;2022-09-09T11:03:36;24.80;1.00
13375;DHT22;6756;51.354;15.754;2022-09-09T11:07:49;24.60;1.00
13375;DHT22;6756;51.354;15.754;2022-09-09T11:11:54;24.90;1.00
13375;DHT22;6756;51.354;15.754;2022-09-09T11:20:19;25.20;1.00
13375;DHT22;6756;51.354;15.754;2022-09-09T11:28:50;25.20;1.00
13375;DHT22;6756;51.354;15.754;2022-09-09T11:33:07;24.80;1.00
13375;DHT22;6756;51.354;15.754;2022-09-09T11:41:20;25.30;1.00
13375;DHT22;6756;51.354;15.754;2022-09-09T11:45:26;25.70;1.00
13375;DHT22;6756;51.354;15.754;2022-09-09T11:49:42;25.60;1.00
13375;DHT22;6756;51.354;15.754;2022-09-09T11:54:01;25.30;1.00
13375;DHT22;6756;51.354;15.754;2022-09-09T12:02:22;25.10;1.00
13375;DHT22;6756;51.354;15.754;2022-09-09T12:06:45;25.40;1.00
13375;DHT22;6756;51.354;15.754;2022-09-09T12:10:55;25.40;1.00
13375;DHT22;6756;51.354;15.754;2022-09-09T12:15:01;25.40;1.00
13375;DHT22;6756;51.354;15.754;2022-09-09T12:19:13;25.70;1.00
13375;DHT22;6756;51.354;15.754;2022-09-09T12:23:34;25.80;1.00
13375;DHT22;6756;51.354;15.754;2022-09-09T12:27:44;26.20;1.00
13375;DHT22;6756;51.354;15.754;2022-09-09T12:35:58;26.20;1.00
13375;DHT22;6756;51.354;15.754;2022-09-09T12:40:04;25.10;1.00
13375;DHT22;6756;51.354;15.754;2022-09-09T12:44:08;22.70;1.00
13375;DHT22;6756;51.354;15.754;2022-09-09T12:48:10;21.30;1.00
13375;DHT22;6756;51.354;15.754;2022-09-09T12:52:26;20.30;9.90
13375;DHT22;6756;51.354;15.754;2022-09-09T12:56:32;19.50;99.90
13375;DHT22;6756;51.354;15.754;2022-09-09T13:00:34;19.30;99.90
13375;DHT22;6756;51.354;15.754;2022-09-09T13:04:35;19.30;99.90
13375;DHT22;6756;51.354;15.754;2022-09-09T13:08:36;19.70;99.90
13375;DHT22;6756;51.354;15.754;2022-09-09T13:12:37;20.30;82.20
13375;DHT22;6756;51.354;15.754;2022-09-09T13:16:38;20.40;70.80
13375;DHT22;6756;51.354;15.754;2022-09-09T13:20:46;20.70;94.10
13375;DHT22;6756;51.354;15.754;2022-09-09T13:24:47;20.90;17.40
13375;DHT22;6756;51.354;15.754;2022-09-09T13:29:18;20.80;9.40
13375;DHT22;6756;51.354;15.754;2022-09-09T13:33:22;20.70;27.80
13375;DHT22;6756;51.354;15.754;2022-09-09T13:41:45;21.40;1.00
13375;DHT22;6756;51.354;15.754;2022-09-09T13:46:00;21.70;1.00
13375;DHT22;6756;51.354;15.754;2022-09-09T13:50:20;21.90;1.00
13375;DHT22;6756;51.354;15.754;2022-09-09T13:54:21;22.10;1.00
13375;DHT22;6756;51.354;15.754;2022-09-09T13:58:23;22.30;1.00
13375;DHT22;6756;51.354;15.754;2022-09-09T14:02:25;22.70;1.00
13375;DHT22;6756;51.354;15.754;2022-09-09T14:06:26;22.90;1.00
13375;DHT22;6756;51.354;15.754;2022-09-09T14:10:27;22.60;1.00
13375;DHT22;6756;51.354;15.754;2022-09-09T14:14:28;22.50;1.00
13375;DHT22;6756;51.354;15.754;2022-09-09T14:18:29;22.50;1.00
13375;DHT22;6756;51.354;15.754;2022-09-09T14:22:30;22.50;1.00
13375;DHT22;6756;51.354;15.754;2022-09-09T14:26:31;22.60;1.00
13375;DHT22;6756;51.354;15.754;2022-09-09T14:30:32;22.70;1.00
13375;DHT22;6756;51.354;15.754;2022-09-09T14:34:33;22.80;1.00
13375;DHT22;6756;51.354;15.754;2022-09-09T14:38:36;22.90;1.00
13375;DHT22;6756;51.354;15.754;2022-09-09T14:42:40;23.10;1.00
13375;DHT22;6756;51.354;15.754;2022-09-09T14:46:41;23.20;1.00
13375;DHT22;6756;51.354;15.754;2022-09-09T14:50:45;23.20;1.00
13375;DHT22;6756;51.354;15.754;2022-09-09T14:54:46;23.00;1.00
13375;DHT22;6756;51.354;15.754;2022-09-09T14:58:47;22.90;1.00
13375;DHT22;6756;51.354;15.754;2022-09-09T15:02:52;22.80;1.00
13375;DHT22;6756;51.354;15.754;2022-09-09T15:06:53;22.80;1.00
13375;DHT22;6756;51.354;15.754;2022-09-09T15:11:04;22.90;1.00
13375;DHT22;6756;51.354;15.754;2022-09-09T15:15:06;23.00;1.00
13375;DHT22;6756;51.354;15.754;2022-09-09T15:19:07;23.00;1.00
13375;DHT22;6756;51.354;15.754;2022-09-09T15:23:08;22.80;1.00
13375;DHT22;6756;51.354;15.754;2022-09-09T15:27:09;22.50;1.00
13375;DHT22;6756;51.354;15.754;2022-09-09T15:31:20;22.40;1.00
13375;DHT22;6756;51.354;15.754;2022-09-09T15:35:21;22.30;1.00
13375;DHT22;6756;51.354;15.754;2022-09-09T15:39:22;22.00;1.00
13375;DHT22;6756;51.354;15.754;2022-09-09T15:43:23;21.70;1.00
13375;DHT22;6756;51.354;15.754;2022-09-09T15:47:24;21.50;2.80
13375;DHT22;6756;51.354;15.754;2022-09-09T15:51:25;21.40;24.20
13375;DHT22;6756;51.354;15.754;2022-09-09T15:55:26;21.30;31.00
13375;DHT22;6756;51.354;15.754;2022-09-09T15:59:29;21.30;46.30
13375;DHT22;6756;51.354;15.754;2022-09-09T16:03:37;21.30;50.50
13375;DHT22;6756;51.354;15.754;2022-09-09T16:07:38;21.30;57.30
13375;DHT22;6756;51.354;15.754;2022-09-09T16:11:39;21.10;99.90
13375;DHT22;6756;51.354;15.754;2022-09-09T16:15:40;20.70;99.90
13375;DHT22;6756;51.354;15.754;2022-09-09T16:19:41;20.20;1.00
13375;DHT22;6756;51.354;15.754;2022-09-09T16:23:43;19.80;99.90
13375;DHT22;6756;51.354;15.754;2022-09-09T16:27:44;19.50;99.90
13375;DHT22;6756;51.354;15.754;2022-09-09T16:31:46;19.40;1.00
13375;DHT22;6756;51.354;15.754;2022-09-09T16:35:47;19.40;1.00
13375;DHT22;6756;51.354;15.754;2022-09-09T16:39:49;19.30;99.90
13375;DHT22;6756;51.354;15.754;2022-09-09T16:44:02;19.30;99.90
13375;DHT22;6756;51.354;15.754;2022-09-09T16:48:03;19.40;99.90
13375;DHT22;6756;51.354;15.754;2022-09-09T16:52:04;19.40;99.90
13375;DHT22;6756;51.354;15.754;2022-09-09T16:56:06;19.30;1.00
13375;DHT22;6756;51.354;15.754;2022-09-09T17:00:07;19.20;1.00
13375;DHT22;6756;51.354;15.754;2022-09-09T17:04:17;19.10;1.00
13375;DHT22;6756;51.354;15.754;2022-09-09T17:08:21;19.00;1.00
13375;DHT22;6756;51.354;15.754;2022-09-09T17:12:21;19.00;1.00
13375;DHT22;6756;51.354;15.754;2022-09-09T17:16:25;18.90;1.00
13375;DHT22;6756;51.354;15.754;2022-09-09T17:20:27;18.60;1.00
13375;DHT22;6756;51.354;15.754;2022-09-09T17:24:28;18.00;99.90
13375;DHT22;6756;51.354;15.754;2022-09-09T17:28:29;17.10;99.90
13375;DHT22;6756;51.354;15.754;2022-09-09T17:32:31;16.60;99.90
13375;DHT22;6756;51.354;15.754;2022-09-09T17:36:34;16.40;99.90
13375;DHT22;6756;51.354;15.754;2022-09-09T17:40:37;16.40;1.00
13375;DHT22;6756;51.354;15.754;2022-09-09T17:44:37;16.40;99.90
13375;DHT22;6756;51.354;15.754;2022-09-09T17:48:40;16.40;99.90
13375;DHT22;6756;51.354;15.754;2022-09-09T17:52:41;16.40;99.90
13375;DHT22;6756;51.354;15.754;2022-09-09T17:56:42;16.40;99.90
13375;DHT22;6756;51.354;15.754;2022-09-09T18:00:47;16.40;1.00
13375;DHT22;6756;51.354;15.754;2022-09-09T18:04:50;16.20;1.00
13375;DHT22;6756;51.354;15.754;2022-09-09T18:08:54;16.10;1.00
13375;DHT22;6756;51.354;15.754;2022-09-09T18:12:55;16.00;99.90
13375;DHT22;6756;51.354;15.754;2022-09-09T18:16:58;16.10;99.90
13375;DHT22;6756;51.354;15.754;2022-09-09T18:21:05;16.00;14.50
13375;DHT22;6756;51.354;15.754;2022-09-09T18:25:06;16.00;99.90
13375;DHT22;6756;51.354;15.754;2022-09-09T18:29:11;15.90;99.90
13375;DHT22;6756;51.354;15.754;2022-09-09T18:33:13;15.80;99.90
13375;DHT22;6756;51.354;15.754;2022-09-09T18:37:15;15.80;99.90
13375;DHT22;6756;51.354;15.754;2022-09-09T18:45:22;15.60;99.90
13375;DHT22;6756;51.354;15.754;2022-09-09T18:49:24;15.60;99.90
13375;DHT22;6756;51.354;15.754;2022-09-09T18:53:26;15.50;99.90
13375;DHT22;6756;51.354;15.754;2022-09-09T18:57:27;15.30;99.90
13375;DHT22;6756;51.354;15.754;2022-09-09T19:01:29;15.20;99.90
13375;DHT22;6756;51.354;15.754;2022-09-09T19:05:30;15.10;99.90
13375;DHT22;6756;51.354;15.754;2022-09-09T19:09:31;15.00;99.90
13375;DHT22;6756;51.354;15.754;2022-09-09T19:13:34;14.80;99.90
13375;DHT22;6756;51.354;15.754;2022-09-09T19:17:36;14.70;99.90
13375;DHT22;6756;51.354;15.754;2022-09-09T19:21:39;14.60;99.90
13375;DHT22;6756;51.354;15.754;2022-09-09T19:25:45;14.60;99.90
13375;DHT22;6756;51.354;15.754;2022-09-09T19:29:46;14.60;99.90
13375;DHT22;6756;51.354;15.754;2022-09-09T19:33:48;14.60;99.90
13375;DHT22;6756;51.354;15.754;2022-09-09T19:37:51;14.50;99.90
13375;DHT22;6756;51.354;15.754;2022-09-09T19:41:52;14.50;99.90
13375;DHT22;6756;51.354;15.754;2022-09-09T19:45:58;14.60;99.90
13375;DHT22;6756;51.354;15.754;2022-09-09T19:50:04;14.60;99.90
13375;DHT22;6756;51.354;15.754;2022-09-09T19:54:08;14.70;99.90
13375;DHT22;6756;51.354;15.754;2022-09-09T19:58:10;14.80;99.90
13375;DHT22;6756;51.354;15.754;2022-09-09T20:02:15;14.90;99.90
13375;DHT22;6756;51.354;15.754;2022-09-09T20:06:20;14.90;99.90
13375;DHT22;6756;51.354;15.754;2022-09-09T20:10:21;15.00;99.90
13375;DHT22;6756;51.354;15.754;2022-09-09T20:14:23;15.00;99.90
13375;DHT22;6756;51.354;15.754;2022-09-09T20:18:26;15.10;99.90
13375;DHT22;6756;51.354;15.754;2022-09-09T20:22:27;15.10;99.90
13375;DHT22;6756;51.354;15.754;2022-09-09T20:26:28;15.10;99.90
13375;DHT22;6756;51.354;15.754;2022-09-09T20:30:36;15.20;99.90
13375;DHT22;6756;51.354;15.754;2022-09-09T20:34:37;15.30;99.90
13375;DHT22;6756;51.354;15.754;2022-09-09T20:38:58;15.40;99.90
13375;DHT22;6756;51.354;15.754;2022-09-09T20:42:59;15.40;99.90
13375;DHT22;6756;51.354;15.754;2022-09-09T20:47:00;15.30;99.90
13375;DHT22;6756;51.354;15.754;2022-09-09T20:51:05;15.20;99.90
13375;DHT22;6756;51.354;15.754;2022-09-09T20:55:09;15.40;99.90
13375;DHT22;6756;51.354;15.754;2022-09-09T20:59:19;15.30;99.90
13375;DHT22;6756;51.354;15.754;2022-09-09T21:03:20;15.30;99.90
13375;DHT22;6756;51.354;15.754;2022-09-09T21:07:21;15.20;99.90
13375;DHT22;6756;51.354;15.754;2022-09-09T21:11:22;15.10;99.90
13375;DHT22;6756;51.354;15.754;2022-09-09T21:15:23;15.00;99.90
13375;DHT22;6756;51.354;15.754;2022-09-09T21:19:24;15.00;99.90
13375;DHT22;6756;51.354;15.754;2022-09-09T21:23:25;14.90;99.90
13375;DHT22;6756;51.354;15.754;2022-09-09T21:27:27;14.80;99.90
13375;DHT22;6756;51.354;15.754;2022-09-09T21:31:29;14.70;99.90
13375;DHT22;6756;51.354;15.754;2022-09-09T21:35:34;14.70;99.90
13375;DHT22;6756;51.354;15.754;2022-09-09T21:39:35;14.70;99.90
13375;DHT22;6756;51.354;15.754;2022-09-09T21:43:36;14.60;99.90
13375;DHT22;6756;51.354;15.754;2022-09-09T21:47:36;14.60;99.90
13375;DHT22;6756;51.354;15.754;2022-09-09T21:51:37;14.60;99.90
13375;DHT22;6756;51.354;15.754;2022-09-09T21:55:39;14.50;99.90
13375;DHT22;6756;51.354;15.754;2022-09-09T21:59:41;14.50;99.90
13375;DHT22;6756;51.354;15.754;2022-09-09T22:03:42;14.40;99.90
13375;DHT22;6756;51.354;15.754;2022-09-09T22:07:43;14.30;99.90
13375;DHT22;6756;51.354;15.754;2022-09-09T22:11:47;14.30;99.90
13375;DHT22;6756;51.354;15.754;2022-09-09T22:15:48;14.20;99.90
13375;DHT22;6756;51.354;15.754;2022-09-09T22:19:50;14.20;99.90
13375;DHT22;6756;51.354;15.754;2022-09-09T22:24:01;14.20;99.90
13375;DHT22;6756;51.354;15.754;2022-09-09T22:28:04;14.10;99.90
13375;DHT22;6756;51.354;15.754;2022-09-09T22:32:05;14.00;99.90
13375;DHT22;6756;51.354;15.754;2022-09-09T22:36:07;13.90;99.90
13375;DHT22;6756;51.354;15.754;2022-09-09T22:40:08;13.90;99.90
13375;DHT22;6756;51.354;15.754;2022-09-09T22:44:09;13.90;99.90
13375;DHT22;6756;51.354;15.754;2022-09-09T22:48:11;13.80;99.90
13375;DHT22;6756;51.354;15.754;2022-09-09T22:52:13;13.80;99.90
13375;DHT22;6756;51.354;15.754;2022-09-09T22:56:16;13.70;99.90
13375;DHT22;6756;51.354;15.754;2022-09-09T23:00:18;13.70;99.90
13375;DHT22;6756;51.354;15.754;2022-09-09T23:04:18;13.70;99.90
13375;DHT22;6756;51.354;15.754;2022-09-09T23:08:30;13.70;99.90
13375;DHT22;6756;51.354;15.754;2022-09-09T23:12:33;13.70;99.90
13375;DHT22;6756;51.354;15.754;2022-09-09T23:16:36;13.70;99.90
13375;DHT22;6756;51.354;15.754;2022-09-09T23:20:40;13.60;99.90
13375;DHT22;6756;51.354;15.754;2022-09-09T23:24:40;13.60;99.90
13375;DHT22;6756;51.354;15.754;2022-09-09T23:28:42;13.60;99.90
13375;DHT22;6756;51.354;15.754;2022-09-09T23:32:43;13.50;99.90
13375;DHT22;6756;51.354;15.754;2022-09-09T23:36:46;13.50;99.90
13375;DHT22;6756;51.354;15.754;2022-09-09T23:40:47;13.50;99.90
13375;DHT22;6756;51.354;15.754;2022-09-09T23:44:47;13.50;99.90
13375;DHT22;6756;51.354;15.754;2022-09-09T23:48:50;13.50;99.90
13375;DHT22;6756;51.354;15.754;2022-09-09T23:52:51;13.50;99.90
13375;DHT22;6756;51.354;15.754;2022-09-09T23:56:52;13.50;99.90
